sensor_id;sensor_type;location;lat;lon;timestamp;pressure;altitude;pressure_sealevel;temperature;humidity
67377;BME280;54261;46.086;6.588;2023-04-01T00:00:20;92012.66;;;5.03;50.63
67377;BME280;54261;46.086;6.588;2023-04-01T00:05:22;92024.81;;;4.76;49.24
67377;BME280;54261;46.086;6.588;2023-04-01T00:10:25;92018.69;;;4.75;49.61
67377;BME280;54261;46.086;6.588;2023-04-01T00:15:27;92021.53;;;5.40;47.72
67377;BME280;54261;46.086;6.588;2023-04-01T00:20:29;92034.31;;;6.45;47.24
67377;BME280;54261;46.086;6.588;2023-04-01T00:25:31;92003.69;;;5.26;47.67
67377;BME280;54261;46.086;6.588;2023-04-01T00:30:35;92014.66;;;4.45;50.31
67377;BME280;54261;46.086;6.588;2023-04-01T00:35:37;92004.50;;;5.27;48.62
67377;BME280;54261;46.086;6.588;2023-04-01T00:40:41;92024.38;;;5.02;50.00
67377;BME280;54261;46.086;6.588;2023-04-01T00:45:45;92033.72;;;6.11;48.47
67377;BME280;54261;46.086;6.588;2023-04-01T00:50:54;92036.50;;;5.08;48.63
67377;BME280;54261;46.086;6.588;2023-04-01T00:56:04;92019.06;;;4.68;49.69
67377;BME280;54261;46.086;6.588;2023-04-01T01:01:09;92030.91;;;5.23;47.38
67377;BME280;54261;46.086;6.588;2023-04-01T01:11:48;92014.47;;;6.14;47.89
67377;BME280;54261;46.086;6.588;2023-04-01T01:16:58;92016.72;;;6.89;46.09
67377;BME280;54261;46.086;6.588;2023-04-01T01:22:21;92035.31;;;6.94;45.17
67377;BME280;54261;46.086;6.588;2023-04-01T01:27:26;92030.75;;;6.49;46.04
67377;BME280;54261;46.086;6.588;2023-04-01T01:37:52;92046.19;;;5.88;45.78
67377;BME280;54261;46.086;6.588;2023-04-01T01:42:59;92057.09;;;3.92;52.89
67377;BME280;54261;46.086;6.588;2023-04-01T01:48:05;92057.63;;;5.88;48.54
67377;BME280;54261;46.086;6.588;2023-04-01T01:53:11;92035.41;;;4.62;49.90
67377;BME280;54261;46.086;6.588;2023-04-01T01:58:18;92036.56;;;6.15;47.63
67377;BME280;54261;46.086;6.588;2023-04-01T02:03:24;92028.50;;;6.06;46.94
67377;BME280;54261;46.086;6.588;2023-04-01T02:14:09;92035.66;;;5.82;47.19
67377;BME280;54261;46.086;6.588;2023-04-01T02:19:13;92044.47;;;4.61;49.15
67377;BME280;54261;46.086;6.588;2023-04-01T02:24:19;92028.78;;;6.41;48.19
67377;BME280;54261;46.086;6.588;2023-04-01T02:29:24;92028.38;;;6.93;46.09
67377;BME280;54261;46.086;6.588;2023-04-01T02:34:27;92031.91;;;6.20;47.29
67377;BME280;54261;46.086;6.588;2023-04-01T02:39:29;92006.69;;;6.41;45.37
67377;BME280;54261;46.086;6.588;2023-04-01T02:44:32;92000.69;;;6.35;45.91
67377;BME280;54261;46.086;6.588;2023-04-01T02:49:33;91998.03;;;6.58;45.77
67377;BME280;54261;46.086;6.588;2023-04-01T02:54:35;91987.94;;;7.00;44.67
67377;BME280;54261;46.086;6.588;2023-04-01T02:59:37;91988.63;;;6.15;45.85
67377;BME280;54261;46.086;6.588;2023-04-01T03:04:39;91971.19;;;6.77;44.37
67377;BME280;54261;46.086;6.588;2023-04-01T03:09:40;91967.66;;;6.45;44.97
67377;BME280;54261;46.086;6.588;2023-04-01T03:14:42;91944.66;;;6.26;44.36
67377;BME280;54261;46.086;6.588;2023-04-01T03:19:44;91949.09;;;5.94;45.46
67377;BME280;54261;46.086;6.588;2023-04-01T03:24:47;91974.44;;;5.40;45.76
67377;BME280;54261;46.086;6.588;2023-04-01T03:29:49;91983.38;;;4.89;47.30
67377;BME280;54261;46.086;6.588;2023-04-01T03:34:51;91974.88;;;6.21;46.26
67377;BME280;54261;46.086;6.588;2023-04-01T03:39:53;91982.63;;;6.32;44.68
67377;BME280;54261;46.086;6.588;2023-04-01T03:44:55;91983.03;;;6.48;44.78
67377;BME280;54261;46.086;6.588;2023-04-01T03:49:57;91994.75;;;6.38;45.06
67377;BME280;54261;46.086;6.588;2023-04-01T03:55:00;91984.97;;;5.18;46.16
67377;BME280;54261;46.086;6.588;2023-04-01T04:00:02;91995.91;;;5.30;46.24
67377;BME280;54261;46.086;6.588;2023-04-01T04:05:14;91997.88;;;2.51;55.34
67377;BME280;54261;46.086;6.588;2023-04-01T04:10:16;91984.06;;;4.47;50.29
67377;BME280;54261;46.086;6.588;2023-04-01T04:15:18;91962.13;;;5.31;47.90
67377;BME280;54261;46.086;6.588;2023-04-01T04:20:20;91937.00;;;4.95;47.51
67377;BME280;54261;46.086;6.588;2023-04-01T04:25:22;91936.91;;;3.67;49.56
67377;BME280;54261;46.086;6.588;2023-04-01T04:30:24;91931.31;;;4.40;48.07
67377;BME280;54261;46.086;6.588;2023-04-01T04:35:26;91938.78;;;5.27;47.23
67377;BME280;54261;46.086;6.588;2023-04-01T04:40:28;91949.81;;;5.21;47.89
67377;BME280;54261;46.086;6.588;2023-04-01T04:45:30;91940.63;;;5.41;46.92
67377;BME280;54261;46.086;6.588;2023-04-01T04:50:33;91952.34;;;5.54;47.12
67377;BME280;54261;46.086;6.588;2023-04-01T04:55:34;91971.38;;;4.44;48.53
67377;BME280;54261;46.086;6.588;2023-04-01T05:00:53;91971.59;;;5.23;47.62
67377;BME280;54261;46.086;6.588;2023-04-01T05:06:00;91954.00;;;5.64;47.46
67377;BME280;54261;46.086;6.588;2023-04-01T05:11:02;91967.06;;;6.25;45.84
67377;BME280;54261;46.086;6.588;2023-04-01T05:16:12;91977.41;;;6.04;44.77
67377;BME280;54261;46.086;6.588;2023-04-01T05:21:15;91992.47;;;4.54;47.07
67377;BME280;54261;46.086;6.588;2023-04-01T05:26:17;91993.91;;;5.92;47.15
67377;BME280;54261;46.086;6.588;2023-04-01T05:31:19;92007.66;;;5.29;48.15
67377;BME280;54261;46.086;6.588;2023-04-01T05:36:23;92002.69;;;6.29;45.84
67377;BME280;54261;46.086;6.588;2023-04-01T05:41:25;92005.19;;;7.03;44.91
67377;BME280;54261;46.086;6.588;2023-04-01T05:46:27;92004.72;;;6.32;45.63
67377;BME280;54261;46.086;6.588;2023-04-01T05:51:34;92017.47;;;6.58;44.76
67377;BME280;54261;46.086;6.588;2023-04-01T05:56:36;92003.88;;;6.46;43.04
67377;BME280;54261;46.086;6.588;2023-04-01T06:01:38;92012.56;;;6.51;44.23
67377;BME280;54261;46.086;6.588;2023-04-01T06:06:40;92005.88;;;6.40;44.29
67377;BME280;54261;46.086;6.588;2023-04-01T06:17:26;91998.50;;;6.82;42.77
67377;BME280;54261;46.086;6.588;2023-04-01T06:22:46;92001.53;;;6.07;44.67
67377;BME280;54261;46.086;6.588;2023-04-01T06:38:36;92030.28;;;6.33;44.80
67377;BME280;54261;46.086;6.588;2023-04-01T07:00:43;92018.31;;;3.28;50.93
67377;BME280;54261;46.086;6.588;2023-04-01T07:05:46;92029.28;;;3.22;50.57
67377;BME280;54261;46.086;6.588;2023-04-01T07:11:02;92036.69;;;4.64;49.52
67377;BME280;54261;46.086;6.588;2023-04-01T07:16:41;92041.81;;;4.61;47.71
67377;BME280;54261;46.086;6.588;2023-04-01T07:21:47;92052.34;;;5.13;48.47
67377;BME280;54261;46.086;6.588;2023-04-01T07:26:58;92057.44;;;4.95;48.51
67377;BME280;54261;46.086;6.588;2023-04-01T07:37:27;92069.06;;;4.86;48.81
67377;BME280;54261;46.086;6.588;2023-04-01T07:58:52;92073.63;;;5.13;51.05
67377;BME280;54261;46.086;6.588;2023-04-01T08:09:52;92069.56;;;4.88;50.39
67377;BME280;54261;46.086;6.588;2023-04-01T08:15:23;92079.94;;;5.78;50.36
67377;BME280;54261;46.086;6.588;2023-04-01T08:20:56;92078.13;;;4.98;49.12
67377;BME280;54261;46.086;6.588;2023-04-01T08:26:12;92072.44;;;5.52;49.31
67377;BME280;54261;46.086;6.588;2023-04-01T08:31:24;92078.59;;;6.32;47.73
67377;BME280;54261;46.086;6.588;2023-04-01T08:36:34;92087.84;;;6.71;47.63
67377;BME280;54261;46.086;6.588;2023-04-01T08:47:50;92086.59;;;7.46;47.00
67377;BME280;54261;46.086;6.588;2023-04-01T09:09:18;92074.03;;;7.46;48.46
67377;BME280;54261;46.086;6.588;2023-04-01T09:37:02;92064.31;;;3.43;57.41
67377;BME280;54261;46.086;6.588;2023-04-01T10:31:13;92013.59;;;8.44;46.87
67377;BME280;54261;46.086;6.588;2023-04-01T10:54:09;91951.75;;;8.63;46.17
67377;BME280;54261;46.086;6.588;2023-04-01T11:05:23;91944.72;;;8.05;43.07
67377;BME280;54261;46.086;6.588;2023-04-01T11:10:56;91950.44;;;5.82;48.78
67377;BME280;54261;46.086;6.588;2023-04-01T11:27:25;91977.03;;;4.56;53.24
67377;BME280;54261;46.086;6.588;2023-04-01T11:43:29;91961.25;;;0.83;65.67
67377;BME280;54261;46.086;6.588;2023-04-01T11:49:29;91991.13;;;3.42;61.09
67377;BME280;54261;46.086;6.588;2023-04-01T12:00:36;92001.16;;;6.60;55.79
67377;BME280;54261;46.086;6.588;2023-04-01T12:05:47;91994.44;;;5.10;58.02
67377;BME280;54261;46.086;6.588;2023-04-01T12:11:06;91986.84;;;8.53;48.72
67377;BME280;54261;46.086;6.588;2023-04-01T12:21:37;91955.88;;;8.43;46.77
67377;BME280;54261;46.086;6.588;2023-04-01T12:37:10;91940.84;;;5.81;50.81
67377;BME280;54261;46.086;6.588;2023-04-01T12:58:06;91919.03;;;7.69;46.63
67377;BME280;54261;46.086;6.588;2023-04-01T13:08:48;91906.50;;;7.96;47.92
67377;BME280;54261;46.086;6.588;2023-04-01T13:25:36;91859.63;;;11.07;43.65
67377;BME280;54261;46.086;6.588;2023-04-01T13:30:47;91853.63;;;7.05;50.81
67377;BME280;54261;46.086;6.588;2023-04-01T13:46:50;91832.78;;;7.95;43.22
67377;BME280;54261;46.086;6.588;2023-04-01T13:52:12;91817.28;;;11.41;40.55
67377;BME280;54261;46.086;6.588;2023-04-01T14:07:59;91792.78;;;11.30;41.92
67377;BME280;54261;46.086;6.588;2023-04-01T14:13:31;91766.00;;;10.22;37.78
67377;BME280;54261;46.086;6.588;2023-04-01T14:34:27;91744.78;;;10.91;38.44
67377;BME280;54261;46.086;6.588;2023-04-01T14:49:47;91723.31;;;5.36;44.74
67377;BME280;54261;46.086;6.588;2023-04-01T14:54:51;91733.69;;;7.35;44.67
67377;BME280;54261;46.086;6.588;2023-04-01T15:00:00;91729.88;;;9.18;41.49
67377;BME280;54261;46.086;6.588;2023-04-01T15:21:27;91764.81;;;5.01;49.47
67377;BME280;54261;46.086;6.588;2023-04-01T15:43:21;91783.16;;;4.88;51.25
67377;BME280;54261;46.086;6.588;2023-04-01T16:04:48;91801.16;;;6.51;48.33
67377;BME280;54261;46.086;6.588;2023-04-01T16:10:06;91801.53;;;6.67;46.25
67377;BME280;54261;46.086;6.588;2023-04-01T16:20:57;91805.00;;;8.83;42.55
67377;BME280;54261;46.086;6.588;2023-04-01T16:32:12;91818.53;;;6.08;47.60
67377;BME280;54261;46.086;6.588;2023-04-01T16:37:20;91825.06;;;3.74;56.21
67377;BME280;54261;46.086;6.588;2023-04-01T16:42:34;91828.03;;;7.13;47.96
67377;BME280;54261;46.086;6.588;2023-04-01T16:47:47;91816.75;;;7.42;46.26
67377;BME280;54261;46.086;6.588;2023-04-01T16:53:00;91831.94;;;7.15;45.98
67377;BME280;54261;46.086;6.588;2023-04-01T16:58:07;91809.13;;;3.22;58.01
67377;BME280;54261;46.086;6.588;2023-04-01T17:03:44;91825.78;;;6.88;49.64
67377;BME280;54261;46.086;6.588;2023-04-01T17:19:45;91832.22;;;3.21;61.60
67377;BME280;54261;46.086;6.588;2023-04-01T17:25:08;91846.63;;;3.53;56.17
67377;BME280;54261;46.086;6.588;2023-04-01T17:30:26;91847.09;;;5.71;51.39
67377;BME280;54261;46.086;6.588;2023-04-01T18:07:56;91909.84;;;2.59;57.35
67377;BME280;54261;46.086;6.588;2023-04-01T18:18:16;91925.84;;;2.73;59.36
67377;BME280;54261;46.086;6.588;2023-04-01T18:23:38;91925.75;;;5.54;52.54
67377;BME280;54261;46.086;6.588;2023-04-01T18:28:54;91934.75;;;6.49;49.70
67377;BME280;54261;46.086;6.588;2023-04-01T18:39:11;91931.78;;;5.04;49.88
67377;BME280;54261;46.086;6.588;2023-04-01T19:00:35;91938.53;;;4.54;53.78
67377;BME280;54261;46.086;6.588;2023-04-01T19:05:42;91947.47;;;6.75;49.13
67377;BME280;54261;46.086;6.588;2023-04-01T19:10:57;91947.09;;;7.40;46.42
67377;BME280;54261;46.086;6.588;2023-04-01T19:16:21;91944.81;;;7.83;45.33
67377;BME280;54261;46.086;6.588;2023-04-01T19:21:42;91945.97;;;7.23;43.34
67377;BME280;54261;46.086;6.588;2023-04-01T19:26:59;91957.75;;;7.31;44.17
67377;BME280;54261;46.086;6.588;2023-04-01T19:37:38;91955.72;;;6.88;43.49
67377;BME280;54261;46.086;6.588;2023-04-01T19:48:43;91949.97;;;7.03;42.69
67377;BME280;54261;46.086;6.588;2023-04-01T19:59:37;91956.19;;;6.90;43.27
67377;BME280;54261;46.086;6.588;2023-04-01T20:04:50;91938.81;;;7.01;43.17
67377;BME280;54261;46.086;6.588;2023-04-01T20:10:20;91948.63;;;6.60;44.00
67377;BME280;54261;46.086;6.588;2023-04-01T20:15:33;91944.91;;;6.38;43.55
67377;BME280;54261;46.086;6.588;2023-04-01T20:20:37;91945.66;;;6.39;43.77
67377;BME280;54261;46.086;6.588;2023-04-01T20:26:02;91942.66;;;6.86;44.57
67377;BME280;54261;46.086;6.588;2023-04-01T20:57:53;91953.84;;;5.46;44.39
67377;BME280;54261;46.086;6.588;2023-04-01T21:08:39;91966.50;;;6.82;42.48
67377;BME280;54261;46.086;6.588;2023-04-01T21:14:33;91963.75;;;7.46;42.95
67377;BME280;54261;46.086;6.588;2023-04-01T21:35:24;91974.63;;;-1.48;68.95
67377;BME280;54261;46.086;6.588;2023-04-01T21:56:39;91986.97;;;5.68;49.84
67377;BME280;54261;46.086;6.588;2023-04-01T22:02:15;91983.00;;;5.09;48.08
67377;BME280;54261;46.086;6.588;2023-04-01T22:07:25;91981.97;;;6.72;47.33
67377;BME280;54261;46.086;6.588;2023-04-01T22:12:51;91971.69;;;7.19;46.38
67377;BME280;54261;46.086;6.588;2023-04-01T22:18:08;91974.75;;;6.27;45.80
67377;BME280;54261;46.086;6.588;2023-04-01T22:23:39;91987.06;;;7.14;45.36
67377;BME280;54261;46.086;6.588;2023-04-01T22:34:44;91981.16;;;6.94;42.88
67377;BME280;54261;46.086;6.588;2023-04-01T22:40:00;91974.22;;;5.37;45.56
67377;BME280;54261;46.086;6.588;2023-04-01T22:56:21;91951.66;;;6.67;44.46
67377;BME280;54261;46.086;6.588;2023-04-01T23:01:30;91959.78;;;6.39;45.27
67377;BME280;54261;46.086;6.588;2023-04-01T23:06:42;91962.34;;;7.40;44.22
67377;BME280;54261;46.086;6.588;2023-04-01T23:11:50;91958.28;;;7.10;43.86
67377;BME280;54261;46.086;6.588;2023-04-01T23:22:35;91970.19;;;7.45;41.83
67377;BME280;54261;46.086;6.588;2023-04-01T23:28:06;91973.47;;;6.01;43.05
67377;BME280;54261;46.086;6.588;2023-04-01T23:38:24;91976.56;;;6.17;43.25
67377;BME280;54261;46.086;6.588;2023-04-01T23:43:30;91980.50;;;5.83;43.65
67377;BME280;54261;46.086;6.588;2023-04-01T23:48:37;91982.03;;;5.61;44.28
67377;BME280;54261;46.086;6.588;2023-04-01T23:53:44;91992.97;;;6.10;44.49
67377;BME280;54261;46.086;6.588;2023-04-01T23:58:52;91988.88;;;6.27;44.57
